sensor_id;sensor_type;location;lat;lon;timestamp;pressure;altitude;pressure_sealevel;temperature
15607;BMP180;7865;50.918;4.510;2023-12-29T00:01:47;100467.00;;;10.70
15607;BMP180;7865;50.918;4.510;2023-12-29T00:06:48;100459.00;;;10.60
15607;BMP180;7865;50.918;4.510;2023-12-29T00:12:01;100452.00;;;10.50
15607;BMP180;7865;50.918;4.510;2023-12-29T00:17:03;100455.00;;;10.50
15607;BMP180;7865;50.918;4.510;2023-12-29T00:22:04;100436.00;;;10.60
15607;BMP180;7865;50.918;4.510;2023-12-29T00:27:05;100431.00;;;10.60
15607;BMP180;7865;50.918;4.510;2023-12-29T00:32:06;100448.00;;;10.60
15607;BMP180;7865;50.918;4.510;2023-12-29T00:37:08;100433.00;;;10.60
15607;BMP180;7865;50.918;4.510;2023-12-29T00:42:10;100425.00;;;10.60
15607;BMP180;7865;50.918;4.510;2023-12-29T00:47:11;100422.00;;;10.50
15607;BMP180;7865;50.918;4.510;2023-12-29T00:52:12;100424.00;;;10.50
15607;BMP180;7865;50.918;4.510;2023-12-29T00:57:13;100441.00;;;10.50
15607;BMP180;7865;50.918;4.510;2023-12-29T01:02:15;100427.00;;;10.60
15607;BMP180;7865;50.918;4.510;2023-12-29T01:07:16;100418.00;;;10.60
15607;BMP180;7865;50.918;4.510;2023-12-29T01:12:18;100409.00;;;10.50
15607;BMP180;7865;50.918;4.510;2023-12-29T01:17:19;100399.00;;;10.50
15607;BMP180;7865;50.918;4.510;2023-12-29T01:22:23;100404.00;;;10.60
15607;BMP180;7865;50.918;4.510;2023-12-29T01:27:24;100403.00;;;10.60
15607;BMP180;7865;50.918;4.510;2023-12-29T01:32:26;100406.00;;;10.60
15607;BMP180;7865;50.918;4.510;2023-12-29T01:37:28;100387.00;;;10.50
15607;BMP180;7865;50.918;4.510;2023-12-29T01:42:29;100379.00;;;10.50
15607;BMP180;7865;50.918;4.510;2023-12-29T01:47:31;100379.00;;;10.50
15607;BMP180;7865;50.918;4.510;2023-12-29T01:52:33;100389.00;;;10.50
15607;BMP180;7865;50.918;4.510;2023-12-29T01:57:34;100377.00;;;10.50
15607;BMP180;7865;50.918;4.510;2023-12-29T02:02:37;100400.00;;;10.50
15607;BMP180;7865;50.918;4.510;2023-12-29T02:07:40;100398.00;;;10.60
15607;BMP180;7865;50.918;4.510;2023-12-29T02:12:41;100397.00;;;10.60
15607;BMP180;7865;50.918;4.510;2023-12-29T02:17:52;100412.00;;;10.50
15607;BMP180;7865;50.918;4.510;2023-12-29T02:22:54;100382.00;;;10.60
15607;BMP180;7865;50.918;4.510;2023-12-29T02:28:11;100377.00;;;10.60
15607;BMP180;7865;50.918;4.510;2023-12-29T02:33:19;100398.00;;;10.60
15607;BMP180;7865;50.918;4.510;2023-12-29T02:38:21;100408.00;;;10.60
15607;BMP180;7865;50.918;4.510;2023-12-29T02:43:22;100413.00;;;10.40
15607;BMP180;7865;50.918;4.510;2023-12-29T02:48:23;100395.00;;;10.30
15607;BMP180;7865;50.918;4.510;2023-12-29T02:53:24;100418.00;;;10.30
15607;BMP180;7865;50.918;4.510;2023-12-29T02:58:26;100425.00;;;10.40
15607;BMP180;7865;50.918;4.510;2023-12-29T03:03:28;100437.00;;;10.50
15607;BMP180;7865;50.918;4.510;2023-12-29T03:08:29;100424.00;;;10.40
15607;BMP180;7865;50.918;4.510;2023-12-29T03:13:32;100413.00;;;10.40
15607;BMP180;7865;50.918;4.510;2023-12-29T03:18:33;100405.00;;;10.30
15607;BMP180;7865;50.918;4.510;2023-12-29T03:23:34;100409.00;;;10.20
15607;BMP180;7865;50.918;4.510;2023-12-29T03:28:36;100399.00;;;10.20
15607;BMP180;7865;50.918;4.510;2023-12-29T03:33:37;100392.00;;;10.20
15607;BMP180;7865;50.918;4.510;2023-12-29T03:38:38;100386.00;;;10.10
15607;BMP180;7865;50.918;4.510;2023-12-29T03:43:40;100379.00;;;10.10
15607;BMP180;7865;50.918;4.510;2023-12-29T03:48:41;100372.00;;;10.00
15607;BMP180;7865;50.918;4.510;2023-12-29T03:53:42;100381.00;;;10.00
15607;BMP180;7865;50.918;4.510;2023-12-29T03:58:45;100367.00;;;9.90
15607;BMP180;7865;50.918;4.510;2023-12-29T04:03:46;100368.00;;;9.90
15607;BMP180;7865;50.918;4.510;2023-12-29T04:08:47;100375.00;;;9.90
15607;BMP180;7865;50.918;4.510;2023-12-29T04:13:48;100363.00;;;9.90
15607;BMP180;7865;50.918;4.510;2023-12-29T04:18:49;100356.00;;;9.90
15607;BMP180;7865;50.918;4.510;2023-12-29T04:23:51;100356.00;;;9.90
15607;BMP180;7865;50.918;4.510;2023-12-29T04:28:52;100359.00;;;9.80
15607;BMP180;7865;50.918;4.510;2023-12-29T04:33:53;100356.00;;;9.80
15607;BMP180;7865;50.918;4.510;2023-12-29T04:38:54;100367.00;;;9.80
15607;BMP180;7865;50.918;4.510;2023-12-29T04:43:56;100367.00;;;9.70
15607;BMP180;7865;50.918;4.510;2023-12-29T04:48:58;100366.00;;;9.80
15607;BMP180;7865;50.918;4.510;2023-12-29T04:53:59;100363.00;;;9.80
15607;BMP180;7865;50.918;4.510;2023-12-29T04:59:01;100387.00;;;9.80
15607;BMP180;7865;50.918;4.510;2023-12-29T05:04:03;100365.00;;;9.90
15607;BMP180;7865;50.918;4.510;2023-12-29T05:09:04;100371.00;;;9.90
15607;BMP180;7865;50.918;4.510;2023-12-29T05:14:05;100373.00;;;9.90
15607;BMP180;7865;50.918;4.510;2023-12-29T05:19:06;100361.00;;;9.90
15607;BMP180;7865;50.918;4.510;2023-12-29T05:24:08;100353.00;;;9.90
15607;BMP180;7865;50.918;4.510;2023-12-29T05:29:09;100338.00;;;9.90
15607;BMP180;7865;50.918;4.510;2023-12-29T05:34:10;100344.00;;;9.90
15607;BMP180;7865;50.918;4.510;2023-12-29T05:39:12;100335.00;;;10.00
15607;BMP180;7865;50.918;4.510;2023-12-29T05:44:13;100334.00;;;10.00
15607;BMP180;7865;50.918;4.510;2023-12-29T05:49:14;100326.00;;;10.00
15607;BMP180;7865;50.918;4.510;2023-12-29T05:54:15;100339.00;;;10.00
15607;BMP180;7865;50.918;4.510;2023-12-29T05:59:17;100337.00;;;10.00
15607;BMP180;7865;50.918;4.510;2023-12-29T06:04:18;100345.00;;;9.90
15607;BMP180;7865;50.918;4.510;2023-12-29T06:09:20;100353.00;;;9.70
15607;BMP180;7865;50.918;4.510;2023-12-29T06:14:21;100360.00;;;9.40
15607;BMP180;7865;50.918;4.510;2023-12-29T06:19:22;100341.00;;;9.20
15607;BMP180;7865;50.918;4.510;2023-12-29T06:24:23;100342.00;;;9.10
15607;BMP180;7865;50.918;4.510;2023-12-29T06:29:24;100349.00;;;9.00
15607;BMP180;7865;50.918;4.510;2023-12-29T06:34:25;100347.00;;;9.00
15607;BMP180;7865;50.918;4.510;2023-12-29T06:39:27;100357.00;;;9.00
15607;BMP180;7865;50.918;4.510;2023-12-29T06:44:28;100357.00;;;9.00
15607;BMP180;7865;50.918;4.510;2023-12-29T06:49:30;100357.00;;;9.00
15607;BMP180;7865;50.918;4.510;2023-12-29T06:54:31;100355.00;;;9.00
15607;BMP180;7865;50.918;4.510;2023-12-29T06:59:32;100369.00;;;9.00
15607;BMP180;7865;50.918;4.510;2023-12-29T07:04:33;100370.00;;;9.00
15607;BMP180;7865;50.918;4.510;2023-12-29T07:09:38;100377.00;;;9.00
15607;BMP180;7865;50.918;4.510;2023-12-29T07:14:41;100371.00;;;9.00
15607;BMP180;7865;50.918;4.510;2023-12-29T07:19:42;100349.00;;;9.00
15607;BMP180;7865;50.918;4.510;2023-12-29T07:24:44;100352.00;;;9.00
15607;BMP180;7865;50.918;4.510;2023-12-29T07:29:45;100350.00;;;9.00
15607;BMP180;7865;50.918;4.510;2023-12-29T07:34:46;100353.00;;;9.00
15607;BMP180;7865;50.918;4.510;2023-12-29T07:39:47;100359.00;;;9.10
15607;BMP180;7865;50.918;4.510;2023-12-29T07:44:49;100384.00;;;9.10
15607;BMP180;7865;50.918;4.510;2023-12-29T07:49:52;100382.00;;;9.00
15607;BMP180;7865;50.918;4.510;2023-12-29T07:54:53;100391.00;;;9.00
15607;BMP180;7865;50.918;4.510;2023-12-29T07:59:54;100377.00;;;9.00
15607;BMP180;7865;50.918;4.510;2023-12-29T08:04:56;100369.00;;;9.00
15607;BMP180;7865;50.918;4.510;2023-12-29T08:09:58;100366.00;;;9.00
15607;BMP180;7865;50.918;4.510;2023-12-29T08:15:00;100356.00;;;9.00
15607;BMP180;7865;50.918;4.510;2023-12-29T08:20:05;100367.00;;;9.10
15607;BMP180;7865;50.918;4.510;2023-12-29T08:25:07;100365.00;;;9.20
15607;BMP180;7865;50.918;4.510;2023-12-29T08:30:09;100368.00;;;9.20
15607;BMP180;7865;50.918;4.510;2023-12-29T08:35:10;100381.00;;;9.30
15607;BMP180;7865;50.918;4.510;2023-12-29T08:40:11;100368.00;;;9.30
15607;BMP180;7865;50.918;4.510;2023-12-29T08:45:13;100380.00;;;9.40
15607;BMP180;7865;50.918;4.510;2023-12-29T08:50:14;100384.00;;;9.50
15607;BMP180;7865;50.918;4.510;2023-12-29T08:55:16;100382.00;;;9.50
15607;BMP180;7865;50.918;4.510;2023-12-29T09:00:17;100410.00;;;9.50
15607;BMP180;7865;50.918;4.510;2023-12-29T09:05:18;100407.00;;;9.80
15607;BMP180;7865;50.918;4.510;2023-12-29T09:10:19;100397.00;;;10.00
15607;BMP180;7865;50.918;4.510;2023-12-29T09:15:22;100404.00;;;10.10
15607;BMP180;7865;50.918;4.510;2023-12-29T09:20:24;100417.00;;;10.10
15607;BMP180;7865;50.918;4.510;2023-12-29T09:25:25;100409.00;;;10.10
15607;BMP180;7865;50.918;4.510;2023-12-29T09:30:27;100410.00;;;10.30
15607;BMP180;7865;50.918;4.510;2023-12-29T09:35:28;100406.00;;;10.50
15607;BMP180;7865;50.918;4.510;2023-12-29T09:40:29;100409.00;;;10.50
15607;BMP180;7865;50.918;4.510;2023-12-29T09:45:32;100411.00;;;10.30
15607;BMP180;7865;50.918;4.510;2023-12-29T09:50:35;100413.00;;;10.10
15607;BMP180;7865;50.918;4.510;2023-12-29T09:55:36;100417.00;;;10.20
15607;BMP180;7865;50.918;4.510;2023-12-29T10:00:39;100408.00;;;10.10
15607;BMP180;7865;50.918;4.510;2023-12-29T10:05:40;100411.00;;;10.10
15607;BMP180;7865;50.918;4.510;2023-12-29T10:10:42;100410.00;;;10.10
15607;BMP180;7865;50.918;4.510;2023-12-29T10:16:11;100412.00;;;10.10
15607;BMP180;7865;50.918;4.510;2023-12-29T10:21:29;100420.00;;;10.40
15607;BMP180;7865;50.918;4.510;2023-12-29T10:26:30;100410.00;;;10.40
15607;BMP180;7865;50.918;4.510;2023-12-29T10:31:32;100415.00;;;10.30
15607;BMP180;7865;50.918;4.510;2023-12-29T10:36:46;100399.00;;;10.70
15607;BMP180;7865;50.918;4.510;2023-12-29T10:41:47;100406.00;;;11.00
15607;BMP180;7865;50.918;4.510;2023-12-29T10:46:49;100399.00;;;11.20
15607;BMP180;7865;50.918;4.510;2023-12-29T10:51:51;100416.00;;;11.40
15607;BMP180;7865;50.918;4.510;2023-12-29T10:57:02;100420.00;;;11.20
15607;BMP180;7865;50.918;4.510;2023-12-29T11:02:03;100408.00;;;10.90
15607;BMP180;7865;50.918;4.510;2023-12-29T11:07:11;100406.00;;;10.60
15607;BMP180;7865;50.918;4.510;2023-12-29T11:12:13;100392.00;;;10.50
15607;BMP180;7865;50.918;4.510;2023-12-29T11:17:15;100400.00;;;10.60
15607;BMP180;7865;50.918;4.510;2023-12-29T11:22:17;100403.00;;;10.70
15607;BMP180;7865;50.918;4.510;2023-12-29T11:27:19;100395.00;;;10.70
15607;BMP180;7865;50.918;4.510;2023-12-29T11:32:36;100384.00;;;10.70
15607;BMP180;7865;50.918;4.510;2023-12-29T11:37:52;100399.00;;;10.60
15607;BMP180;7865;50.918;4.510;2023-12-29T11:43:01;100390.00;;;10.60
15607;BMP180;7865;50.918;4.510;2023-12-29T11:48:05;100391.00;;;10.60
15607;BMP180;7865;50.918;4.510;2023-12-29T11:53:07;100367.00;;;10.50
15607;BMP180;7865;50.918;4.510;2023-12-29T11:58:27;100376.00;;;10.60
15607;BMP180;7865;50.918;4.510;2023-12-29T12:03:30;100376.00;;;10.50
15607;BMP180;7865;50.918;4.510;2023-12-29T12:08:36;100370.00;;;10.40
15607;BMP180;7865;50.918;4.510;2023-12-29T12:13:43;100363.00;;;10.30
15607;BMP180;7865;50.918;4.510;2023-12-29T12:18:44;100365.00;;;10.20
15607;BMP180;7865;50.918;4.510;2023-12-29T12:23:46;100378.00;;;10.20
15607;BMP180;7865;50.918;4.510;2023-12-29T12:28:52;100377.00;;;10.00
15607;BMP180;7865;50.918;4.510;2023-12-29T12:33:57;100381.00;;;9.90
15607;BMP180;7865;50.918;4.510;2023-12-29T12:38:58;100373.00;;;9.80
15607;BMP180;7865;50.918;4.510;2023-12-29T12:44:10;100371.00;;;9.40
15607;BMP180;7865;50.918;4.510;2023-12-29T12:49:12;100371.00;;;9.30
15607;BMP180;7865;50.918;4.510;2023-12-29T12:54:17;100361.00;;;9.20
15607;BMP180;7865;50.918;4.510;2023-12-29T12:59:20;100344.00;;;9.30
15607;BMP180;7865;50.918;4.510;2023-12-29T13:04:22;100331.00;;;9.70
15607;BMP180;7865;50.918;4.510;2023-12-29T13:09:23;100337.00;;;10.00
15607;BMP180;7865;50.918;4.510;2023-12-29T13:14:25;100332.00;;;10.00
15607;BMP180;7865;50.918;4.510;2023-12-29T13:19:27;100319.00;;;10.10
15607;BMP180;7865;50.918;4.510;2023-12-29T13:24:29;100311.00;;;10.30
15607;BMP180;7865;50.918;4.510;2023-12-29T13:29:30;100301.00;;;10.40
15607;BMP180;7865;50.918;4.510;2023-12-29T13:34:48;100293.00;;;10.50
15607;BMP180;7865;50.918;4.510;2023-12-29T13:45:02;100284.00;;;10.50
15607;BMP180;7865;50.918;4.510;2023-12-29T13:50:09;100304.00;;;10.40
15607;BMP180;7865;50.918;4.510;2023-12-29T13:55:10;100300.00;;;10.20
15607;BMP180;7865;50.918;4.510;2023-12-29T14:00:22;100297.00;;;10.10
15607;BMP180;7865;50.918;4.510;2023-12-29T14:05:39;100291.00;;;10.00
15607;BMP180;7865;50.918;4.510;2023-12-29T14:10:44;100291.00;;;10.10
15607;BMP180;7865;50.918;4.510;2023-12-29T14:15:46;100286.00;;;10.20
15607;BMP180;7865;50.918;4.510;2023-12-29T14:20:52;100288.00;;;10.20
15607;BMP180;7865;50.918;4.510;2023-12-29T14:26:02;100288.00;;;10.20
15607;BMP180;7865;50.918;4.510;2023-12-29T14:31:03;100289.00;;;10.20
15607;BMP180;7865;50.918;4.510;2023-12-29T14:36:04;100302.00;;;10.10
15607;BMP180;7865;50.918;4.510;2023-12-29T14:41:06;100301.00;;;10.00
15607;BMP180;7865;50.918;4.510;2023-12-29T14:46:07;100291.00;;;10.10
15607;BMP180;7865;50.918;4.510;2023-12-29T14:51:08;100288.00;;;10.10
15607;BMP180;7865;50.918;4.510;2023-12-29T14:56:10;100290.00;;;10.00
15607;BMP180;7865;50.918;4.510;2023-12-29T15:01:11;100270.00;;;10.00
15607;BMP180;7865;50.918;4.510;2023-12-29T15:06:13;100272.00;;;9.90
15607;BMP180;7865;50.918;4.510;2023-12-29T15:11:14;100274.00;;;9.80
15607;BMP180;7865;50.918;4.510;2023-12-29T15:16:15;100287.00;;;9.80
15607;BMP180;7865;50.918;4.510;2023-12-29T15:21:17;100278.00;;;9.80
15607;BMP180;7865;50.918;4.510;2023-12-29T15:26:18;100279.00;;;9.90
15607;BMP180;7865;50.918;4.510;2023-12-29T15:31:19;100284.00;;;9.90
15607;BMP180;7865;50.918;4.510;2023-12-29T15:36:21;100295.00;;;9.80
15607;BMP180;7865;50.918;4.510;2023-12-29T15:41:23;100263.00;;;9.80
15607;BMP180;7865;50.918;4.510;2023-12-29T15:46:24;100266.00;;;9.80
15607;BMP180;7865;50.918;4.510;2023-12-29T15:51:26;100266.00;;;9.80
15607;BMP180;7865;50.918;4.510;2023-12-29T15:56:27;100268.00;;;9.80
15607;BMP180;7865;50.918;4.510;2023-12-29T16:01:29;100267.00;;;9.90
15607;BMP180;7865;50.918;4.510;2023-12-29T16:06:30;100250.00;;;9.90
15607;BMP180;7865;50.918;4.510;2023-12-29T16:11:32;100249.00;;;9.80
15607;BMP180;7865;50.918;4.510;2023-12-29T16:16:38;100259.00;;;9.70
15607;BMP180;7865;50.918;4.510;2023-12-29T16:21:39;100238.00;;;9.60
15607;BMP180;7865;50.918;4.510;2023-12-29T16:26:40;100245.00;;;9.60
15607;BMP180;7865;50.918;4.510;2023-12-29T16:31:48;100262.00;;;9.50
15607;BMP180;7865;50.918;4.510;2023-12-29T16:36:59;100262.00;;;9.50
15607;BMP180;7865;50.918;4.510;2023-12-29T16:42:02;100257.00;;;9.40
15607;BMP180;7865;50.918;4.510;2023-12-29T16:47:04;100260.00;;;9.50
15607;BMP180;7865;50.918;4.510;2023-12-29T16:52:06;100244.00;;;9.60
15607;BMP180;7865;50.918;4.510;2023-12-29T16:57:07;100256.00;;;9.60
15607;BMP180;7865;50.918;4.510;2023-12-29T17:02:08;100254.00;;;9.60
15607;BMP180;7865;50.918;4.510;2023-12-29T17:07:10;100275.00;;;9.70
15607;BMP180;7865;50.918;4.510;2023-12-29T17:12:11;100279.00;;;9.80
15607;BMP180;7865;50.918;4.510;2023-12-29T17:17:13;100288.00;;;9.80
15607;BMP180;7865;50.918;4.510;2023-12-29T17:22:14;100300.00;;;9.90
15607;BMP180;7865;50.918;4.510;2023-12-29T17:27:17;100313.00;;;9.80
15607;BMP180;7865;50.918;4.510;2023-12-29T17:32:18;100302.00;;;9.80
15607;BMP180;7865;50.918;4.510;2023-12-29T17:37:20;100303.00;;;9.70
15607;BMP180;7865;50.918;4.510;2023-12-29T17:42:22;100317.00;;;9.70
15607;BMP180;7865;50.918;4.510;2023-12-29T17:47:23;100325.00;;;9.60
15607;BMP180;7865;50.918;4.510;2023-12-29T17:52:24;100330.00;;;9.50
15607;BMP180;7865;50.918;4.510;2023-12-29T17:57:25;100342.00;;;9.50
15607;BMP180;7865;50.918;4.510;2023-12-29T18:02:27;100349.00;;;9.60
15607;BMP180;7865;50.918;4.510;2023-12-29T18:07:32;100363.00;;;9.70
15607;BMP180;7865;50.918;4.510;2023-12-29T18:12:33;100351.00;;;9.70
15607;BMP180;7865;50.918;4.510;2023-12-29T18:17:35;100363.00;;;9.70
15607;BMP180;7865;50.918;4.510;2023-12-29T18:22:38;100385.00;;;9.70
15607;BMP180;7865;50.918;4.510;2023-12-29T18:27:39;100371.00;;;9.60
15607;BMP180;7865;50.918;4.510;2023-12-29T18:32:40;100374.00;;;9.70
15607;BMP180;7865;50.918;4.510;2023-12-29T18:37:45;100389.00;;;9.70
15607;BMP180;7865;50.918;4.510;2023-12-29T18:42:47;100388.00;;;9.80
15607;BMP180;7865;50.918;4.510;2023-12-29T18:47:49;100392.00;;;9.80
15607;BMP180;7865;50.918;4.510;2023-12-29T18:52:50;100407.00;;;9.70
15607;BMP180;7865;50.918;4.510;2023-12-29T18:57:51;100409.00;;;9.70
15607;BMP180;7865;50.918;4.510;2023-12-29T19:02:54;100430.00;;;9.60
15607;BMP180;7865;50.918;4.510;2023-12-29T19:07:55;100425.00;;;9.60
15607;BMP180;7865;50.918;4.510;2023-12-29T19:12:56;100431.00;;;9.40
15607;BMP180;7865;50.918;4.510;2023-12-29T19:17:57;100435.00;;;9.30
15607;BMP180;7865;50.918;4.510;2023-12-29T19:23:02;100440.00;;;9.20
15607;BMP180;7865;50.918;4.510;2023-12-29T19:28:04;100447.00;;;9.10
15607;BMP180;7865;50.918;4.510;2023-12-29T19:33:06;100439.00;;;9.00
15607;BMP180;7865;50.918;4.510;2023-12-29T19:38:07;100436.00;;;9.00
15607;BMP180;7865;50.918;4.510;2023-12-29T19:43:09;100438.00;;;9.00
15607;BMP180;7865;50.918;4.510;2023-12-29T19:48:10;100436.00;;;8.90
15607;BMP180;7865;50.918;4.510;2023-12-29T19:53:11;100429.00;;;8.80
15607;BMP180;7865;50.918;4.510;2023-12-29T19:58:12;100435.00;;;8.80
15607;BMP180;7865;50.918;4.510;2023-12-29T20:03:14;100433.00;;;8.80
15607;BMP180;7865;50.918;4.510;2023-12-29T20:08:15;100437.00;;;8.90
15607;BMP180;7865;50.918;4.510;2023-12-29T20:13:18;100448.00;;;9.00
15607;BMP180;7865;50.918;4.510;2023-12-29T20:18:19;100446.00;;;9.00
15607;BMP180;7865;50.918;4.510;2023-12-29T20:23:20;100446.00;;;8.90
15607;BMP180;7865;50.918;4.510;2023-12-29T20:28:21;100449.00;;;8.80
15607;BMP180;7865;50.918;4.510;2023-12-29T20:33:23;100439.00;;;8.70
15607;BMP180;7865;50.918;4.510;2023-12-29T20:38:24;100455.00;;;8.70
15607;BMP180;7865;50.918;4.510;2023-12-29T20:43:25;100461.00;;;8.80
15607;BMP180;7865;50.918;4.510;2023-12-29T20:48:26;100454.00;;;8.70
15607;BMP180;7865;50.918;4.510;2023-12-29T20:53:28;100456.00;;;8.60
15607;BMP180;7865;50.918;4.510;2023-12-29T20:58:29;100468.00;;;8.50
15607;BMP180;7865;50.918;4.510;2023-12-29T21:03:30;100479.00;;;8.50
15607;BMP180;7865;50.918;4.510;2023-12-29T21:08:32;100482.00;;;8.50
15607;BMP180;7865;50.918;4.510;2023-12-29T21:13:33;100481.00;;;8.50
15607;BMP180;7865;50.918;4.510;2023-12-29T21:18:35;100465.00;;;8.50
15607;BMP180;7865;50.918;4.510;2023-12-29T21:23:36;100475.00;;;8.50
15607;BMP180;7865;50.918;4.510;2023-12-29T21:28:37;100485.00;;;8.50
15607;BMP180;7865;50.918;4.510;2023-12-29T21:33:39;100483.00;;;8.60
15607;BMP180;7865;50.918;4.510;2023-12-29T21:38:41;100504.00;;;8.60
15607;BMP180;7865;50.918;4.510;2023-12-29T21:43:43;100497.00;;;8.60
15607;BMP180;7865;50.918;4.510;2023-12-29T21:48:45;100489.00;;;8.60
15607;BMP180;7865;50.918;4.510;2023-12-29T21:53:47;100495.00;;;8.60
15607;BMP180;7865;50.918;4.510;2023-12-29T21:58:49;100506.00;;;8.50
15607;BMP180;7865;50.918;4.510;2023-12-29T22:03:54;100510.00;;;8.40
15607;BMP180;7865;50.918;4.510;2023-12-29T22:08:57;100514.00;;;8.30
15607;BMP180;7865;50.918;4.510;2023-12-29T22:13:58;100517.00;;;8.30
15607;BMP180;7865;50.918;4.510;2023-12-29T22:19:02;100523.00;;;8.30
15607;BMP180;7865;50.918;4.510;2023-12-29T22:24:07;100532.00;;;8.20
15607;BMP180;7865;50.918;4.510;2023-12-29T22:29:08;100536.00;;;8.30
15607;BMP180;7865;50.918;4.510;2023-12-29T22:34:10;100544.00;;;8.30
15607;BMP180;7865;50.918;4.510;2023-12-29T22:39:11;100546.00;;;8.30
15607;BMP180;7865;50.918;4.510;2023-12-29T22:44:12;100549.00;;;8.30
15607;BMP180;7865;50.918;4.510;2023-12-29T22:49:14;100554.00;;;8.40
15607;BMP180;7865;50.918;4.510;2023-12-29T22:54:15;100553.00;;;8.50
15607;BMP180;7865;50.918;4.510;2023-12-29T22:59:16;100557.00;;;8.50
15607;BMP180;7865;50.918;4.510;2023-12-29T23:04:18;100558.00;;;8.50
15607;BMP180;7865;50.918;4.510;2023-12-29T23:09:19;100551.00;;;8.40
15607;BMP180;7865;50.918;4.510;2023-12-29T23:14:20;100568.00;;;8.40
15607;BMP180;7865;50.918;4.510;2023-12-29T23:19:21;100589.00;;;8.40
15607;BMP180;7865;50.918;4.510;2023-12-29T23:24:23;100578.00;;;8.40
15607;BMP180;7865;50.918;4.510;2023-12-29T23:29:24;100580.00;;;8.30
15607;BMP180;7865;50.918;4.510;2023-12-29T23:34:25;100590.00;;;8.20
15607;BMP180;7865;50.918;4.510;2023-12-29T23:39:26;100609.00;;;8.20
15607;BMP180;7865;50.918;4.510;2023-12-29T23:44:27;100600.00;;;8.20
15607;BMP180;7865;50.918;4.510;2023-12-29T23:49:29;100605.00;;;8.10
15607;BMP180;7865;50.918;4.510;2023-12-29T23:54:30;100602.00;;;8.00
15607;BMP180;7865;50.918;4.510;2023-12-29T23:59:32;100611.00;;;7.80
